Akron, Alabama
Current Conditions -  °F | °C
As of 11:50 AM on Monday 22 Dec 2014 (Local Time) from KTCL Reporting Station
Overcast Overcast  
Wind Chill: 13°   Ceiling: 1000
Heat Index: 13°   Visibility: 10mi
Dew Point: 11°   Wind: 5mph
Humidity: 88%   Direction: 140°SE
Pressure: 29.84"   Gusts: NA
Location:  32.88°N, 87.74°W
Report Text: KTCL 221750Z 14004KT 10SM OVC010 13/11 A2984 RMK AO2
Loading
Personal Weather Stations






























Interactive Weather Map New forecast layout! Learn more

10-Day Weather Forecast

Advertisements
Track Severe Weather on mobile